Ice — ZCOE9 — position and weather

sailwx.info

Track history (hours):
 
Tides and Currents Weather Stations Pressure Air Temp Water Temp Dewpoint Dewpoint Depression Visibility Wind Speed Wind Dir Waves Ship Positions

Ice

Last reported at 2015-Apr-28 19:33 UTC. Time now 2015-Apr-28 19:49 UTC.
Position N 53°10' E 008°36'.

Length 90 m; draft 5 m.

Type: Other ship. MMSI: 319411000.

Date/timePositionNaut miles runAvg speedWind from/ knotsBaromVisibWave heightAir tempDewpointWater temp
2015-Apr-28 19:33N 53°10' E 008°36'0 0.0
2015-Apr-28 18:31N 53°10' E 008°36'0 0.0
2015-Apr-28 17:32N 53°10' E 008°36'0 0.0
2015-Apr-28 07:21N 53°10' E 008°36'0 0.0
2015-Apr-28 00:10N 53°10' E 008°36'0 0.0
2015-Apr-27 23:29N 53°10' E 008°36'0 0.0
2015-Apr-27 22:32N 53°10' E 008°36'0 0.0
2015-Apr-27 21:33N 53°10' E 008°36'0 0.0
2015-Apr-27 20:31N 53°10' E 008°36'0 0.0
2015-Apr-27 19:31N 53°10' E 008°36'0 0.0
2015-Apr-27 18:32N 53°10' E 008°36'0 0.0
2015-Apr-27 17:33N 53°10' E 008°36'0 0.0
2015-Apr-27 16:31N 53°10' E 008°36'0 0.0
2015-Apr-27 05:23N 53°10' E 008°36'0 0.0
2015-Apr-27 02:10N 53°10' E 008°36'0 0.0
2015-Apr-26 23:12N 53°10' E 008°36'0 0.0
2015-Apr-26 22:22N 53°10' E 008°36'0 0.0
2015-Apr-26 21:31N 53°10' E 008°36'0 0.0
2015-Apr-26 20:23N 53°10' E 008°36'0 0.0
2015-Apr-26 19:33N 53°10' E 008°36'0 0.0
2015-Apr-26 18:33N 53°10' E 008°36'0 0.0
2015-Apr-26 17:31N 53°10' E 008°36'0 0.0
2015-Apr-26 16:32N 53°10' E 008°36'0 0.0
2015-Apr-26 15:32N 53°10' E 008°36'0 0.0
2015-Apr-26 08:19N 53°10' E 008°36'0 0.0
2015-Apr-26 06:32N 53°10' E 008°36'0 0.0
2015-Apr-26 05:33N 53°10' E 008°36'0 0.0
2015-Apr-26 04:28N 53°10' E 008°36'0 0.0
2015-Apr-26 03:28N 53°10' E 008°36'0 0.0
2015-Apr-26 02:29N 53°10' E 008°36'0 0.0
2015-Apr-25 20:21N 53°10' E 008°36'0 0.0
2015-Apr-25 19:28N 53°10' E 008°36'0 0.0
2015-Apr-25 18:28N 53°10' E 008°36'0 0.0
2015-Apr-25 17:32N 53°10' E 008°36'0 0.0
2015-Apr-25 16:33N 53°10' E 008°36'0 0.0
2015-Apr-25 15:30N 53°10' E 008°36'0 0.0
2015-Apr-25 14:25N 53°10' E 008°36'0 0.0
2015-Apr-25 12:23N 53°10' E 008°36'0 0.0
2015-Apr-25 09:05N 53°10' E 008°36'0 0.0
2015-Apr-25 08:23N 53°10' E 008°36'0 0.0
2015-Apr-25 06:30N 53°10' E 008°36'0 0.0
2015-Apr-25 05:31N 53°10' E 008°36'0 0.0
2015-Apr-25 04:32N 53°10' E 008°36'0 0.0
2015-Apr-25 03:32N 53°10' E 008°36'0 0.0
2015-Apr-25 02:33N 53°10' E 008°36'0 0.0
2015-Apr-24 23:10N 53°10' E 008°36'0 0.0
2015-Apr-24 18:26N 53°10' E 008°36'5 5.4
2015-Apr-24 17:33N 53°13' E 008°30'9 8.6
2015-Apr-24 16:33N 53°21' E 008°30'10 9.6
2015-Apr-24 15:33N 53°31' E 008°33'6 5.8
2015-Apr-24 14:33N 53°36' E 008°30'1615.8
2015-Apr-24 13:34N 53°47' E 008°10'1212.2
2015-Apr-24 12:33N 53°56' E 007°56'4 3.9
2015-Apr-24 11:33N 53°58' E 008°01'8 8.5
2015-Apr-24 10:33N 53°50' E 008°05'0 0.2
2015-Apr-24 09:34N 53°50' E 008°06'1514.5
2015-Apr-24 08:33N 53°40' E 008°23'1313.1
2015-Apr-24 07:34N 53°27' E 008°29'1312.9
2015-Apr-24 06:33N 53°14' E 008°29'6 5.8
2015-Apr-24 05:32N 53°10' E 008°36'0 0.0
2015-Apr-24 04:33N 53°10' E 008°36'0 0.0
2015-Apr-24 03:33N 53°10' E 008°36'0 0.0
2015-Apr-24 02:31N 53°10' E 008°36'0 0.0
2015-Apr-24 01:31N 53°10' E 008°36'0 0.0
2015-Apr-24 00:29N 53°10' E 008°36'0 0.0
2015-Apr-23 23:30N 53°10' E 008°36'0 0.0
2015-Apr-23 22:25N 53°10' E 008°36'0 0.0
2015-Apr-23 21:31N 53°10' E 008°36'0 0.0
2015-Apr-23 20:32N 53°10' E 008°36'0 0.0
2015-Apr-23 18:33N 53°10' E 008°36'0 0.0
2015-Apr-23 17:28N 53°10' E 008°36'0 0.0
2015-Apr-23 16:29N 53°10' E 008°36'0 0.0
2015-Apr-23 11:08N 53°10' E 008°36'0 0.0
2015-Apr-23 09:15N 53°10' E 008°36'0 0.0
2015-Apr-23 05:06N 53°10' E 008°36'0 0.0
2015-Apr-23 04:31N 53°10' E 008°36'0 0.0
2015-Apr-23 03:31N 53°10' E 008°36'0 0.0
2015-Apr-23 02:29N 53°10' E 008°36'0 0.0
2015-Apr-23 01:33N 53°10' E 008°36'0 0.0
2015-Apr-23 00:33N 53°10' E 008°36'0 0.0
2015-Apr-22 23:28N 53°10' E 008°36'0 0.0
2015-Apr-22 22:17N 53°10' E 008°36'0 0.0
2015-Apr-22 21:29N 53°10' E 008°36'0 0.0
2015-Apr-22 20:30N 53°10' E 008°36'0 0.0
2015-Apr-22 19:10N 53°10' E 008°36'0 0.0
2015-Apr-22 18:25N 53°10' E 008°36'0 0.0
2015-Apr-22 17:20N 53°10' E 008°36'0 0.0
2015-Apr-22 16:33N 53°10' E 008°36'0 0.0
2015-Apr-22 15:27N 53°10' E 008°36'0 0.0
2015-Apr-22 14:22N 53°10' E 008°36'0 0.0
2015-Apr-22 13:26N 53°10' E 008°36'0 0.0
2015-Apr-22 09:25N 53°10' E 008°36'0 0.0
2015-Apr-22 08:20N 53°10' E 008°36'0 0.0
2015-Apr-22 07:27N 53°10' E 008°36'0 0.0
2015-Apr-22 06:33N 53°10' E 008°36'0 0.0
2015-Apr-22 05:31N 53°10' E 008°36'0 0.0
2015-Apr-22 04:32N 53°10' E 008°36'0 0.0
2015-Apr-22 03:32N 53°10' E 008°36'0 0.0
2015-Apr-22 02:27N 53°10' E 008°36'0 0.0
2015-Apr-22 01:31N 53°10' E 008°36'0 0.0
2015-Apr-22 00:23N 53°10' E 008°36'0 0.0
2015-Apr-21 23:32N 53°10' E 008°36'0 0.0
2015-Apr-21 22:33N 53°10' E 008°36'0 0.0
2015-Apr-21 21:33N 53°10' E 008°36'0 0.0
2015-Apr-21 20:31N 53°10' E 008°36'0 0.0
2015-Apr-21 19:32N 53°10' E 008°36'1 1.5
2015-Apr-21 18:33N 53°11' E 008°34'1110.6
2015-Apr-21 17:33N 53°21' E 008°30'9 9.2
2015-Apr-21 16:33N 53°30' E 008°31'10 9.9
2015-Apr-21 15:33N 53°39' E 008°24'1515.0
2015-Apr-21 14:33N 53°49' E 008°05'1616.3
2015-Apr-21 13:33N 53°55' E 007°39'7 7.4
2015-Apr-21 12:33N 53°52' E 007°51'1515.0
2015-Apr-21 11:34N 53°45' E 008°13'9 9.4
2015-Apr-21 10:33N 53°51' E 008°01'1313.2
2015-Apr-21 09:33N 53°43' E 008°18'1413.5
2015-Apr-21 08:33N 53°33' E 008°34'1212.5
2015-Apr-21 07:33N 53°20' E 008°30'10 9.2
2015-Apr-21 06:30N 53°11' E 008°33'2 1.9
2015-Apr-21 05:30N 53°10' E 008°36'0 0.0
2015-Apr-21 04:25N 53°10' E 008°36'0 0.0
2015-Apr-21 03:25N 53°10' E 008°36'0 0.0
2015-Apr-21 02:26N 53°10' E 008°36'0 0.0
2015-Apr-21 01:15N 53°10' E 008°36'0 0.0
2015-Apr-21 00:18N 53°10' E 008°36'0 0.0
2015-Apr-20 23:19N 53°10' E 008°36'0 0.0
2015-Apr-20 22:08N 53°10' E 008°36'0 0.0
2015-Apr-20 21:11N 53°10' E 008°36'0 0.0
2015-Apr-20 20:10N 53°10' E 008°36'0 0.0
2015-Apr-20 18:22N 53°10' E 008°36'0 0.0
2015-Apr-20 17:26N 53°10' E 008°36'0 0.0
2015-Apr-20 16:33N 53°10' E 008°36'0 0.0
2015-Apr-20 15:33N 53°10' E 008°36'0 0.0
2015-Apr-20 14:25N 53°10' E 008°36'0 0.0
2015-Apr-20 13:26N 53°10' E 008°36'0 0.0
2015-Apr-20 12:32N 53°10' E 008°36'0 0.0
2015-Apr-20 11:18N 53°10' E 008°36'0 0.0
2015-Apr-20 06:33N 53°10' E 008°36'0 0.0
2015-Apr-20 05:19N 53°10' E 008°36'0 0.0
2015-Apr-20 04:32N 53°10' E 008°36'0 0.0
2015-Apr-20 03:32N 53°10' E 008°36'0 0.0
2015-Apr-20 02:33N 53°10' E 008°36'0 0.0
2015-Apr-20 01:31N 53°10' E 008°36'0 0.0
2015-Apr-20 00:31N 53°10' E 008°36'0 0.0
2015-Apr-19 23:32N 53°10' E 008°36'0 0.0
2015-Apr-19 17:27N 53°10' E 008°36'0 0.0
2015-Apr-19 16:31N 53°10' E 008°36'0 0.0
2015-Apr-19 15:31N 53°10' E 008°36'0 0.0
2015-Apr-19 14:29N 53°10' E 008°36'0 0.0
2015-Apr-19 13:33N 53°10' E 008°36'0 0.0
2015-Apr-19 12:30N 53°10' E 008°36'0 0.0
2015-Apr-19 11:31N 53°10' E 008°36'0 0.0
2015-Apr-19 07:19N 53°10' E 008°36'0 0.0
2015-Apr-19 04:27N 53°10' E 008°36'0 0.0
2015-Apr-19 03:33N 53°10' E 008°36'0 0.0
2015-Apr-19 02:31N 53°10' E 008°36'0 0.0
2015-Apr-19 01:29N 53°10' E 008°36'0 0.0
2015-Apr-19 00:30N 53°10' E 008°36'0 0.0
2015-Apr-18 23:30N 53°10' E 008°36'0 0.0
2015-Apr-18 22:31N 53°10' E 008°36'  
Track history (hours):
 
Tides and Currents Weather Stations Pressure Air Temp Water Temp Dewpoint Dewpoint Depression Visibility Wind Speed Wind Dir Waves Ship Positions

Ice

Last reported at 2015-Apr-28 19:33 UTC. Time now 2015-Apr-28 19:49 UTC.
Position N 53°10' E 008°36'.

Length 90 m; draft 5 m.

Type: Other ship. MMSI: 319411000.

Date/timePositionNaut miles runAvg speedWind from/ knotsBaromVisibWave heightAir tempDewpointWater temp
2015-Apr-28 19:33N 53°10' E 008°36'0 0.0
2015-Apr-28 18:31N 53°10' E 008°36'0 0.0
2015-Apr-28 17:32N 53°10' E 008°36'0 0.0
2015-Apr-28 07:21N 53°10' E 008°36'0 0.0
2015-Apr-28 00:10N 53°10' E 008°36'0 0.0
2015-Apr-27 23:29N 53°10' E 008°36'0 0.0
2015-Apr-27 22:32N 53°10' E 008°36'0 0.0
2015-Apr-27 21:33N 53°10' E 008°36'0 0.0
2015-Apr-27 20:31N 53°10' E 008°36'0 0.0
2015-Apr-27 19:31N 53°10' E 008°36'0 0.0
2015-Apr-27 18:32N 53°10' E 008°36'0 0.0
2015-Apr-27 17:33N 53°10' E 008°36'0 0.0
2015-Apr-27 16:31N 53°10' E 008°36'0 0.0
2015-Apr-27 05:23N 53°10' E 008°36'0 0.0
2015-Apr-27 02:10N 53°10' E 008°36'0 0.0
2015-Apr-26 23:12N 53°10' E 008°36'0 0.0
2015-Apr-26 22:22N 53°10' E 008°36'0 0.0
2015-Apr-26 21:31N 53°10' E 008°36'0 0.0
2015-Apr-26 20:23N 53°10' E 008°36'0 0.0
2015-Apr-26 19:33N 53°10' E 008°36'0 0.0
2015-Apr-26 18:33N 53°10' E 008°36'0 0.0
2015-Apr-26 17:31N 53°10' E 008°36'0 0.0
2015-Apr-26 16:32N 53°10' E 008°36'0 0.0
2015-Apr-26 15:32N 53°10' E 008°36'0 0.0
2015-Apr-26 08:19N 53°10' E 008°36'0 0.0
2015-Apr-26 06:32N 53°10' E 008°36'0 0.0
2015-Apr-26 05:33N 53°10' E 008°36'0 0.0
2015-Apr-26 04:28N 53°10' E 008°36'0 0.0
2015-Apr-26 03:28N 53°10' E 008°36'0 0.0
2015-Apr-26 02:29N 53°10' E 008°36'0 0.0
2015-Apr-25 20:21N 53°10' E 008°36'0 0.0
2015-Apr-25 19:28N 53°10' E 008°36'0 0.0
2015-Apr-25 18:28N 53°10' E 008°36'0 0.0
2015-Apr-25 17:32N 53°10' E 008°36'0 0.0
2015-Apr-25 16:33N 53°10' E 008°36'0 0.0
2015-Apr-25 15:30N 53°10' E 008°36'0 0.0
2015-Apr-25 14:25N 53°10' E 008°36'0 0.0
2015-Apr-25 12:23N 53°10' E 008°36'0 0.0
2015-Apr-25 09:05N 53°10' E 008°36'0 0.0
2015-Apr-25 08:23N 53°10' E 008°36'0 0.0
2015-Apr-25 06:30N 53°10' E 008°36'0 0.0
2015-Apr-25 05:31N 53°10' E 008°36'0 0.0
2015-Apr-25 04:32N 53°10' E 008°36'0 0.0
2015-Apr-25 03:32N 53°10' E 008°36'0 0.0
2015-Apr-25 02:33N 53°10' E 008°36'0 0.0
2015-Apr-24 23:10N 53°10' E 008°36'0 0.0
2015-Apr-24 18:26N 53°10' E 008°36'5 5.4
2015-Apr-24 17:33N 53°13' E 008°30'9 8.6
2015-Apr-24 16:33N 53°21' E 008°30'10 9.6
2015-Apr-24 15:33N 53°31' E 008°33'6 5.8
2015-Apr-24 14:33N 53°36' E 008°30'1615.8
2015-Apr-24 13:34N 53°47' E 008°10'1212.2
2015-Apr-24 12:33N 53°56' E 007°56'4 3.9
2015-Apr-24 11:33N 53°58' E 008°01'8 8.5
2015-Apr-24 10:33N 53°50' E 008°05'0 0.2
2015-Apr-24 09:34N 53°50' E 008°06'1514.5
2015-Apr-24 08:33N 53°40' E 008°23'1313.1
2015-Apr-24 07:34N 53°27' E 008°29'1312.9
2015-Apr-24 06:33N 53°14' E 008°29'6 5.8
2015-Apr-24 05:32N 53°10' E 008°36'0 0.0
2015-Apr-24 04:33N 53°10' E 008°36'0 0.0
2015-Apr-24 03:33N 53°10' E 008°36'0 0.0
2015-Apr-24 02:31N 53°10' E 008°36'0 0.0
2015-Apr-24 01:31N 53°10' E 008°36'0 0.0
2015-Apr-24 00:29N 53°10' E 008°36'0 0.0
2015-Apr-23 23:30N 53°10' E 008°36'0 0.0
2015-Apr-23 22:25N 53°10' E 008°36'0 0.0
2015-Apr-23 21:31N 53°10' E 008°36'0 0.0
2015-Apr-23 20:32N 53°10' E 008°36'0 0.0
2015-Apr-23 18:33N 53°10' E 008°36'0 0.0
2015-Apr-23 17:28N 53°10' E 008°36'0 0.0
2015-Apr-23 16:29N 53°10' E 008°36'0 0.0
2015-Apr-23 11:08N 53°10' E 008°36'0 0.0
2015-Apr-23 09:15N 53°10' E 008°36'0 0.0
2015-Apr-23 05:06N 53°10' E 008°36'0 0.0
2015-Apr-23 04:31N 53°10' E 008°36'0 0.0
2015-Apr-23 03:31N 53°10' E 008°36'0 0.0
2015-Apr-23 02:29N 53°10' E 008°36'0 0.0
2015-Apr-23 01:33N 53°10' E 008°36'0 0.0
2015-Apr-23 00:33N 53°10' E 008°36'0 0.0
2015-Apr-22 23:28N 53°10' E 008°36'0 0.0
2015-Apr-22 22:17N 53°10' E 008°36'0 0.0
2015-Apr-22 21:29N 53°10' E 008°36'0 0.0
2015-Apr-22 20:30N 53°10' E 008°36'0 0.0
2015-Apr-22 19:10N 53°10' E 008°36'0 0.0
2015-Apr-22 18:25N 53°10' E 008°36'0 0.0
2015-Apr-22 17:20N 53°10' E 008°36'0 0.0
2015-Apr-22 16:33N 53°10' E 008°36'0 0.0
2015-Apr-22 15:27N 53°10' E 008°36'0 0.0
2015-Apr-22 14:22N 53°10' E 008°36'0 0.0
2015-Apr-22 13:26N 53°10' E 008°36'0 0.0
2015-Apr-22 09:25N 53°10' E 008°36'0 0.0
2015-Apr-22 08:20N 53°10' E 008°36'0 0.0
2015-Apr-22 07:27N 53°10' E 008°36'0 0.0
2015-Apr-22 06:33N 53°10' E 008°36'0 0.0
2015-Apr-22 05:31N 53°10' E 008°36'0 0.0
2015-Apr-22 04:32N 53°10' E 008°36'0 0.0
2015-Apr-22 03:32N 53°10' E 008°36'0 0.0
2015-Apr-22 02:27N 53°10' E 008°36'0 0.0
2015-Apr-22 01:31N 53°10' E 008°36'0 0.0
2015-Apr-22 00:23N 53°10' E 008°36'0 0.0
2015-Apr-21 23:32N 53°10' E 008°36'0 0.0
2015-Apr-21 22:33N 53°10' E 008°36'0 0.0
2015-Apr-21 21:33N 53°10' E 008°36'0 0.0
2015-Apr-21 20:31N 53°10' E 008°36'0 0.0
2015-Apr-21 19:32N 53°10' E 008°36'1 1.5
2015-Apr-21 18:33N 53°11' E 008°34'1110.6
2015-Apr-21 17:33N 53°21' E 008°30'9 9.2
2015-Apr-21 16:33N 53°30' E 008°31'10 9.9
2015-Apr-21 15:33N 53°39' E 008°24'1515.0
2015-Apr-21 14:33N 53°49' E 008°05'1616.3
2015-Apr-21 13:33N 53°55' E 007°39'7 7.4
2015-Apr-21 12:33N 53°52' E 007°51'1515.0
2015-Apr-21 11:34N 53°45' E 008°13'9 9.4
2015-Apr-21 10:33N 53°51' E 008°01'1313.2
2015-Apr-21 09:33N 53°43' E 008°18'1413.5
2015-Apr-21 08:33N 53°33' E 008°34'1212.5
2015-Apr-21 07:33N 53°20' E 008°30'10 9.2
2015-Apr-21 06:30N 53°11' E 008°33'2 1.9
2015-Apr-21 05:30N 53°10' E 008°36'0 0.0
2015-Apr-21 04:25N 53°10' E 008°36'0 0.0
2015-Apr-21 03:25N 53°10' E 008°36'0 0.0
2015-Apr-21 02:26N 53°10' E 008°36'0 0.0
2015-Apr-21 01:15N 53°10' E 008°36'0 0.0
2015-Apr-21 00:18N 53°10' E 008°36'0 0.0
2015-Apr-20 23:19N 53°10' E 008°36'0 0.0
2015-Apr-20 22:08N 53°10' E 008°36'0 0.0
2015-Apr-20 21:11N 53°10' E 008°36'0 0.0
2015-Apr-20 20:10N 53°10' E 008°36'0 0.0
2015-Apr-20 18:22N 53°10' E 008°36'0 0.0
2015-Apr-20 17:26N 53°10' E 008°36'0 0.0
2015-Apr-20 16:33N 53°10' E 008°36'0 0.0
2015-Apr-20 15:33N 53°10' E 008°36'0 0.0
2015-Apr-20 14:25N 53°10' E 008°36'0 0.0
2015-Apr-20 13:26N 53°10' E 008°36'0 0.0
2015-Apr-20 12:32N 53°10' E 008°36'0 0.0
2015-Apr-20 11:18N 53°10' E 008°36'0 0.0
2015-Apr-20 06:33N 53°10' E 008°36'0 0.0
2015-Apr-20 05:19N 53°10' E 008°36'0 0.0
2015-Apr-20 04:32N 53°10' E 008°36'0 0.0
2015-Apr-20 03:32N 53°10' E 008°36'0 0.0
2015-Apr-20 02:33N 53°10' E 008°36'0 0.0
2015-Apr-20 01:31N 53°10' E 008°36'0 0.0
2015-Apr-20 00:31N 53°10' E 008°36'0 0.0
2015-Apr-19 23:32N 53°10' E 008°36'0 0.0
2015-Apr-19 17:27N 53°10' E 008°36'0 0.0
2015-Apr-19 16:31N 53°10' E 008°36'0 0.0
2015-Apr-19 15:31N 53°10' E 008°36'0 0.0
2015-Apr-19 14:29N 53°10' E 008°36'0 0.0
2015-Apr-19 13:33N 53°10' E 008°36'0 0.0
2015-Apr-19 12:30N 53°10' E 008°36'0 0.0
2015-Apr-19 11:31N 53°10' E 008°36'0 0.0
2015-Apr-19 07:19N 53°10' E 008°36'0 0.0
2015-Apr-19 04:27N 53°10' E 008°36'0 0.0
2015-Apr-19 03:33N 53°10' E 008°36'0 0.0
2015-Apr-19 02:31N 53°10' E 008°36'0 0.0
2015-Apr-19 01:29N 53°10' E 008°36'0 0.0
2015-Apr-19 00:30N 53°10' E 008°36'0 0.0
2015-Apr-18 23:30N 53°10' E 008°36'0 0.0
2015-Apr-18 22:31N 53°10' E 008°36'  

Dump ship's entire track history